createdAt,value
2022-12-26T00:00:41.833Z,24.37
2022-12-26T00:03:09.117Z,29.43
2022-12-26T00:05:39.638Z,28.17
2022-12-26T00:08:08.309Z,29.63
2022-12-26T00:10:35.733Z,27.50
2022-12-26T00:13:39.836Z,28.13
2022-12-26T00:15:50.687Z,28.73
2022-12-26T00:18:18.234Z,27.27
2022-12-26T00:20:45.979Z,27.20
2022-12-26T00:23:13.754Z,28.40
2022-12-26T00:25:41.208Z,26.80
2022-12-26T00:28:08.658Z,26.37
2022-12-26T00:30:38.427Z,27.97
2022-12-26T00:33:05.588Z,25.77
2022-12-26T00:35:32.714Z,32.17
2022-12-26T00:38:00.184Z,28.77
2022-12-26T00:40:27.670Z,25.63
2022-12-26T00:42:55.107Z,30.50
2022-12-26T00:45:22.602Z,28.43
2022-12-26T00:47:50.038Z,27.53
2022-12-26T00:50:17.555Z,27.50
2022-12-26T00:52:45.015Z,27.70
2022-12-26T00:55:12.145Z,30.00
2022-12-26T00:57:39.573Z,28.40
2022-12-26T01:00:07.679Z,32.33
2022-12-26T01:02:38.684Z,29.27
2022-12-26T01:05:08.616Z,32.77
2022-12-26T01:08:22.020Z,30.13
2022-12-26T01:10:24.660Z,29.87
2022-12-26T01:12:52.508Z,27.70
2022-12-26T01:15:20.571Z,30.30
2022-12-26T01:17:48.029Z,30.27
2022-12-26T01:20:15.729Z,30.00
2022-12-26T01:22:43.168Z,30.10
2022-12-26T01:25:12.109Z,29.47
2022-12-26T01:27:39.559Z,34.37
2022-12-26T01:30:07.604Z,26.97
2022-12-26T01:32:35.039Z,31.50
2022-12-26T01:35:02.506Z,32.60
2022-12-26T01:37:29.944Z,30.10
2022-12-26T01:39:57.442Z,28.37
2022-12-26T01:42:25.755Z,28.97
2022-12-26T01:45:16.182Z,32.87
2022-12-26T01:48:02.177Z,38.20
2022-12-26T01:50:52.824Z,34.70
2022-12-26T01:53:28.268Z,32.33
2022-12-26T01:56:00.654Z,33.47
2022-12-26T01:58:32.648Z,31.10
2022-12-26T02:01:00.416Z,33.43
2022-12-26T02:03:46.501Z,36.37
2022-12-26T02:06:15.324Z,30.13
2022-12-26T02:08:43.656Z,33.80
2022-12-26T02:11:19.217Z,34.70
2022-12-26T02:13:46.703Z,35.53
2022-12-26T02:16:15.107Z,36.03
2022-12-26T02:18:42.879Z,37.17
2022-12-26T02:21:39.864Z,34.40
2022-12-26T02:24:27.957Z,40.63
2022-12-26T02:27:13.983Z,35.97
2022-12-26T02:30:10.528Z,34.73
2022-12-26T02:33:07.087Z,32.50
2022-12-26T02:35:52.731Z,36.47
2022-12-26T02:38:49.688Z,36.17
2022-12-26T02:41:36.407Z,40.27
2022-12-26T02:44:42.717Z,34.57
2022-12-26T02:47:21.341Z,33.80
2022-12-26T02:50:31.369Z,35.20
2022-12-26T02:53:40.406Z,33.53
2022-12-26T02:56:33.432Z,30.80
2022-12-26T02:59:55.738Z,30.87
2022-12-26T03:02:49.652Z,33.23
2022-12-26T03:06:04.835Z,32.43
2022-12-26T03:08:52.713Z,33.87
2022-12-26T03:11:38.989Z,35.17
2022-12-26T03:14:12.602Z,33.13
2022-12-26T03:17:00.585Z,34.63
2022-12-26T03:19:29.496Z,35.77
2022-12-26T03:21:57.864Z,34.60
2022-12-26T03:24:46.363Z,38.60
2022-12-26T03:27:13.855Z,35.13
2022-12-26T03:30:00.078Z,35.93
2022-12-26T03:32:27.537Z,35.87
2022-12-26T03:34:55.040Z,39.87
2022-12-26T03:37:49.234Z,37.00
2022-12-26T03:41:02.184Z,41.40
2022-12-26T03:43:54.901Z,37.00
2022-12-26T03:47:09.691Z,35.90
2022-12-26T03:50:05.880Z,34.67
2022-12-26T03:53:23.591Z,41.97
2022-12-26T03:56:31.865Z,36.40
2022-12-26T03:59:27.434Z,35.87
2022-12-26T04:02:14.885Z,33.97
2022-12-26T04:05:02.852Z,30.67
2022-12-26T04:07:56.293Z,28.53
2022-12-26T04:10:55.958Z,32.63
2022-12-26T04:13:44.427Z,30.20
2022-12-26T04:16:51.477Z,25.83
2022-12-26T04:19:42.593Z,27.87
2022-12-26T04:22:54.825Z,25.50
2022-12-26T04:25:48.663Z,25.73
2022-12-26T04:28:38.433Z,27.40
2022-12-26T04:31:36.946Z,24.43
2022-12-26T04:34:26.113Z,24.90
2022-12-26T04:37:16.298Z,23.90
2022-12-26T04:40:05.575Z,24.67
2022-12-26T04:42:52.704Z,23.37
2022-12-26T04:45:21.405Z,21.17
2022-12-26T04:48:09.187Z,23.07
2022-12-26T04:50:36.740Z,30.63
2022-12-26T04:53:04.199Z,23.83
2022-12-26T04:55:32.956Z,31.20
2022-12-26T04:58:00.756Z,21.43
2022-12-26T05:00:29.377Z,24.47
2022-12-26T05:03:19.216Z,22.07
2022-12-26T05:06:14.447Z,21.53
2022-12-26T05:09:01.631Z,25.30
2022-12-26T05:11:29.943Z,21.63
2022-12-26T05:13:58.016Z,24.40
2022-12-26T05:16:44.816Z,20.80
2022-12-26T05:19:35.229Z,20.10
2022-12-26T05:22:21.934Z,18.77
2022-12-26T05:25:08.084Z,20.37
2022-12-26T05:27:58.852Z,20.00
2022-12-26T05:30:26.789Z,23.87
2022-12-26T05:33:12.688Z,20.63
2022-12-26T05:35:40.517Z,20.00
2022-12-26T05:38:09.627Z,23.00
2022-12-26T05:40:37.404Z,22.40
2022-12-26T05:43:04.837Z,21.40
2022-12-26T05:45:32.845Z,20.67
2022-12-26T05:48:00.691Z,19.00
2022-12-26T05:50:28.717Z,23.07
2022-12-26T05:52:59.586Z,21.40
2022-12-26T05:55:26.741Z,23.03
2022-12-26T05:57:53.815Z,21.43
2022-12-26T06:00:21.153Z,22.30
2022-12-26T06:02:49.039Z,20.53
2022-12-26T06:05:16.613Z,22.97
2022-12-26T06:07:44.457Z,21.40
2022-12-26T06:10:11.654Z,21.20
2022-12-26T06:12:46.913Z,18.60
2022-12-26T06:15:14.038Z,20.57
2022-12-26T06:17:41.103Z,22.03
2022-12-26T06:20:09.059Z,18.60
2022-12-26T06:22:36.489Z,19.00
2022-12-26T06:25:03.770Z,18.43
2022-12-26T06:27:30.842Z,18.50
2022-12-26T06:29:57.961Z,22.87
2022-12-26T06:32:25.417Z,18.83
2022-12-26T06:34:52.860Z,19.10
2022-12-26T06:37:20.326Z,20.17
2022-12-26T06:39:47.772Z,19.97
2022-12-26T06:42:15.211Z,17.53
2022-12-26T06:44:42.688Z,19.93
2022-12-26T06:47:10.146Z,20.50
2022-12-26T06:49:37.667Z,15.80
2022-12-26T06:52:05.209Z,16.53
2022-12-26T06:54:32.670Z,22.90
2022-12-26T06:57:00.131Z,20.60
2022-12-26T06:59:27.661Z,15.57
2022-12-26T07:01:55.198Z,16.60
2022-12-26T07:04:22.432Z,16.67
2022-12-26T07:06:49.874Z,18.90
2022-12-26T07:09:18.959Z,14.17
2022-12-26T07:11:49.383Z,16.37
2022-12-26T07:14:17.110Z,15.37
2022-12-26T07:16:45.495Z,17.00
2022-12-26T07:19:13.721Z,12.87
2022-12-26T07:21:41.463Z,12.20
2022-12-26T07:24:15.186Z,13.70
2022-12-26T07:26:42.582Z,13.87
2022-12-26T07:29:11.974Z,14.30
2022-12-26T07:31:39.642Z,11.70
2022-12-26T07:34:07.169Z,11.23
2022-12-26T07:36:34.628Z,12.50
2022-12-26T07:39:01.741Z,14.23
2022-12-26T07:41:48.592Z,16.80
2022-12-26T07:44:26.152Z,14.27
2022-12-26T07:46:53.317Z,13.83
2022-12-26T07:49:20.476Z,11.97
2022-12-26T07:51:47.598Z,13.77
2022-12-26T07:54:15.599Z,12.43
2022-12-26T07:56:43.021Z,11.93
2022-12-26T07:59:15.582Z,11.50
2022-12-26T08:01:43.572Z,13.03
2022-12-26T08:04:11.703Z,15.50
2022-12-26T08:06:39.041Z,14.47
2022-12-26T08:09:06.593Z,13.90
2022-12-26T08:11:35.238Z,14.20
2022-12-26T08:14:02.445Z,11.27
2022-12-26T08:16:31.417Z,12.00
2022-12-26T08:18:58.607Z,10.50
2022-12-26T08:21:25.793Z,13.63
2022-12-26T08:23:53.196Z,11.73
2022-12-26T08:26:23.450Z,12.97
2022-12-26T08:28:51.650Z,10.87
2022-12-26T08:31:19.903Z,14.10
2022-12-26T08:33:47.497Z,9.80
2022-12-26T08:36:17.266Z,10.97
2022-12-26T08:38:45.901Z,8.60
2022-12-26T08:41:13.363Z,19.20
2022-12-26T08:46:28.567Z,9.43
2022-12-26T08:48:56.029Z,10.07
2022-12-26T08:51:25.386Z,12.83
2022-12-26T08:53:54.837Z,13.33
2022-12-26T08:56:25.638Z,10.13
2022-12-26T08:58:53.594Z,10.10
2022-12-26T09:01:29.496Z,10.93
2022-12-26T09:04:02.154Z,11.20
2022-12-26T09:06:32.005Z,10.03
2022-12-26T09:09:00.250Z,10.30
2022-12-26T09:11:27.740Z,12.93
2022-12-26T09:13:56.217Z,11.93
2022-12-26T09:16:25.207Z,11.30
2022-12-26T09:18:57.168Z,9.57
2022-12-26T09:21:25.282Z,9.20
2022-12-26T09:24:01.042Z,10.53
2022-12-26T09:26:28.928Z,12.67
2022-12-26T09:28:56.615Z,12.53
2022-12-26T09:31:26.430Z,11.20
2022-12-26T09:33:53.879Z,8.27
2022-12-26T09:36:23.979Z,10.43
2022-12-26T09:38:52.082Z,16.03
2022-12-26T09:41:48.677Z,11.00
2022-12-26T09:44:34.741Z,10.13
2022-12-26T09:47:20.775Z,12.00
2022-12-26T09:50:06.904Z,7.33
2022-12-26T09:52:54.580Z,9.43
2022-12-26T09:55:45.078Z,10.10
2022-12-26T09:58:16.442Z,11.20
2022-12-26T10:00:46.721Z,14.73
2022-12-26T10:03:14.531Z,10.37
2022-12-26T10:05:47.353Z,11.03
2022-12-26T10:08:24.390Z,10.50
2022-12-26T10:11:01.576Z,9.80
2022-12-26T10:13:49.395Z,9.93
2022-12-26T10:16:21.168Z,9.97
2022-12-26T10:19:03.901Z,9.20
2022-12-26T10:21:51.627Z,12.50
2022-12-26T10:24:23.604Z,12.47
2022-12-26T10:27:11.279Z,10.43
2022-12-26T10:29:40.286Z,13.87
2022-12-26T10:32:11.781Z,7.53
2022-12-26T10:34:46.939Z,8.90
2022-12-26T10:37:37.811Z,11.03
2022-12-26T10:40:27.153Z,8.23
2022-12-26T10:42:58.175Z,8.63
2022-12-26T10:45:43.682Z,5.93
2022-12-26T10:48:13.708Z,9.57
2022-12-26T10:50:44.579Z,5.53
2022-12-26T10:53:13.804Z,3.57
2022-12-26T10:55:40.941Z,5.80
2022-12-26T10:58:29.970Z,5.50
2022-12-26T11:00:57.204Z,3.60
2022-12-26T11:03:24.425Z,4.33
2022-12-26T11:06:10.371Z,2.70
2022-12-26T11:08:43.808Z,5.13
2022-12-26T11:11:46.511Z,4.87
2022-12-26T11:14:33.860Z,2.60
2022-12-26T11:17:13.240Z,3.20
2022-12-26T11:19:44.885Z,3.53
2022-12-26T11:22:30.524Z,1.70
2022-12-26T11:25:20.119Z,2.00
2022-12-26T11:27:53.756Z,3.03
2022-12-26T11:30:34.605Z,3.87
2022-12-26T11:33:14.768Z,2.50
2022-12-26T11:35:47.931Z,3.60
2022-12-26T11:38:39.069Z,3.57
2022-12-26T11:41:33.428Z,3.83
2022-12-26T11:44:16.504Z,3.97
2022-12-26T11:47:07.672Z,2.67
2022-12-26T11:50:04.772Z,2.07
2022-12-26T11:52:57.017Z,1.87
2022-12-26T11:55:30.971Z,5.17
2022-12-26T11:58:29.550Z,1.53
2022-12-26T12:01:15.947Z,3.27
2022-12-26T12:03:50.091Z,4.17
2022-12-26T12:06:44.105Z,2.00
2022-12-26T12:09:37.885Z,3.90
2022-12-26T12:12:33.008Z,2.90
2022-12-26T12:15:13.355Z,2.40
2022-12-26T12:18:05.325Z,3.83
2022-12-26T12:21:14.863Z,2.63
2022-12-26T12:24:16.555Z,3.10
2022-12-26T12:27:07.430Z,1.60
2022-12-26T12:30:14.831Z,1.97
2022-12-26T12:33:24.748Z,4.20
2022-12-26T12:36:19.802Z,1.27
2022-12-26T12:39:07.486Z,2.73
2022-12-26T12:42:06.097Z,2.63
2022-12-26T12:45:20.445Z,2.93
2022-12-26T12:48:20.675Z,2.80
2022-12-26T12:51:30.706Z,1.97
2022-12-26T12:54:33.252Z,1.47
2022-12-26T12:57:40.210Z,2.67
2022-12-26T13:00:19.788Z,1.80
2022-12-26T13:03:06.431Z,2.50
2022-12-26T13:05:49.684Z,1.93
2022-12-26T13:08:25.543Z,1.67
2022-12-26T13:11:01.626Z,0.83
2022-12-26T13:13:53.318Z,1.23
2022-12-26T13:16:25.998Z,1.07
2022-12-26T13:19:03.216Z,2.80
2022-12-26T13:21:36.087Z,1.10
2022-12-26T13:24:26.211Z,1.50
2022-12-26T13:27:22.763Z,1.47
2022-12-26T13:29:50.579Z,1.17
2022-12-26T13:32:30.798Z,0.90
2022-12-26T13:35:00.220Z,2.37
2022-12-26T13:37:55.646Z,0.73
2022-12-26T13:40:30.081Z,1.37
2022-12-26T13:43:41.363Z,1.80
2022-12-26T13:46:58.789Z,2.20
2022-12-26T13:49:40.183Z,0.73
2022-12-26T13:52:35.051Z,1.23
2022-12-26T13:55:41.147Z,1.10
2022-12-26T13:59:00.516Z,1.10
2022-12-26T14:42:45.066Z,0.60
2022-12-26T15:15:51.735Z,1.23
2022-12-26T15:18:52.734Z,5.87
2022-12-26T15:21:49.306Z,2.07
2022-12-26T15:25:18.716Z,4.97
2022-12-26T15:28:38.445Z,2.63
2022-12-26T15:32:04.411Z,6.53
2022-12-26T15:35:01.724Z,0.93
2022-12-26T16:04:27.992Z,7.47
2022-12-26T16:13:31.840Z,3.83
2022-12-26T16:16:00.681Z,3.83
2022-12-26T16:18:33.110Z,3.27
2022-12-26T16:21:22.170Z,3.43
2022-12-26T16:23:51.374Z,4.97
2022-12-26T16:26:30.236Z,3.70
2022-12-26T16:29:00.333Z,3.37
2022-12-26T16:31:31.266Z,3.43
2022-12-26T16:33:59.900Z,3.03
2022-12-26T16:36:30.315Z,3.10
2022-12-26T16:38:57.452Z,2.60
2022-12-26T16:41:30.086Z,4.13
2022-12-26T16:44:30.506Z,4.43
2022-12-26T16:47:05.669Z,15.53
2022-12-26T16:49:33.565Z,3.60
2022-12-26T16:52:00.945Z,7.67
2022-12-26T16:54:38.687Z,5.40
2022-12-26T16:57:23.572Z,5.87
2022-12-26T16:59:54.721Z,3.90
2022-12-26T17:02:34.911Z,7.33
2022-12-26T17:05:16.097Z,6.70
2022-12-26T17:07:45.763Z,5.07
2022-12-26T17:10:28.395Z,7.70
2022-12-26T17:12:59.627Z,6.93
2022-12-26T17:15:30.908Z,6.93
2022-12-26T17:18:00.027Z,7.03
2022-12-26T17:20:35.146Z,7.53
2022-12-26T17:23:39.873Z,6.57
2022-12-26T17:26:26.207Z,6.47
2022-12-26T17:28:53.532Z,8.63
2022-12-26T17:31:42.019Z,8.40
2022-12-26T17:34:25.761Z,5.37
2022-12-26T17:37:18.473Z,5.83
2022-12-26T17:39:41.730Z,4.77
2022-12-26T17:42:08.863Z,6.20
2022-12-26T17:44:41.154Z,5.43
2022-12-26T17:47:34.617Z,5.00
2022-12-26T17:50:01.685Z,4.97
2022-12-26T17:52:29.964Z,4.57
2022-12-26T17:54:58.664Z,4.17
2022-12-26T17:57:28.771Z,4.70
2022-12-26T17:59:56.762Z,4.23
2022-12-26T18:02:24.529Z,7.23
2022-12-26T18:04:52.144Z,6.90
2022-12-26T18:07:30.920Z,4.97
2022-12-26T18:10:00.158Z,3.33
2022-12-26T18:12:27.742Z,4.57
2022-12-26T18:15:01.389Z,4.07
2022-12-26T18:17:32.668Z,2.60
2022-12-26T18:20:00.597Z,5.87
2022-12-26T18:22:27.766Z,5.47
2022-12-26T18:24:54.938Z,5.70
2022-12-26T18:27:25.895Z,5.20
2022-12-26T18:29:53.356Z,3.90
2022-12-26T18:32:38.696Z,3.80
2022-12-26T18:35:06.489Z,3.70
2022-12-26T18:37:33.608Z,4.30
2022-12-26T18:40:01.086Z,4.07
2022-12-26T18:42:28.388Z,4.90
2022-12-26T18:44:55.524Z,7.23
2022-12-26T18:47:23.430Z,3.73
2022-12-26T18:49:50.654Z,3.83
2022-12-26T18:52:18.310Z,5.47
2022-12-26T18:54:45.844Z,1.30
2022-12-26T18:57:18.419Z,2.20
2022-12-26T18:59:46.262Z,7.47
2022-12-26T19:02:18.658Z,2.60
2022-12-26T19:04:48.672Z,2.97
2022-12-26T19:07:17.235Z,1.57
2022-12-26T19:09:45.439Z,2.00
2022-12-26T19:12:12.894Z,2.87
2022-12-26T19:14:40.436Z,1.70
2022-12-26T19:17:07.611Z,2.63
2022-12-26T19:19:34.707Z,2.60
2022-12-26T19:22:01.867Z,2.07
2022-12-26T19:24:28.967Z,3.27
2022-12-26T19:26:56.040Z,1.93
2022-12-26T19:29:23.424Z,1.50
2022-12-26T19:31:50.594Z,1.47
2022-12-26T19:34:18.249Z,1.23
2022-12-26T19:36:45.792Z,1.37
2022-12-26T19:39:12.908Z,1.53
2022-12-26T19:41:40.088Z,1.43
2022-12-26T19:44:07.222Z,1.20
2022-12-26T19:46:34.702Z,2.60
2022-12-26T19:49:01.831Z,3.47
2022-12-26T19:51:28.983Z,4.43
2022-12-26T19:53:56.433Z,2.67
2022-12-26T19:56:25.578Z,3.20
2022-12-26T19:58:56.744Z,2.03
2022-12-26T20:01:30.433Z,1.93
2022-12-26T20:04:00.301Z,1.23
2022-12-26T20:06:29.121Z,3.10
2022-12-26T20:08:58.702Z,2.23
2022-12-26T20:11:30.043Z,2.07
2022-12-26T20:13:57.522Z,8.80
2022-12-26T20:19:13.489Z,1.67
2022-12-26T20:21:40.702Z,2.73
2022-12-26T20:24:08.401Z,1.40
2022-12-26T20:26:35.466Z,1.67
2022-12-26T20:29:02.604Z,3.27
2022-12-26T20:31:31.207Z,2.77
2022-12-26T20:33:59.243Z,1.60
2022-12-26T20:36:28.128Z,5.87
2022-12-26T20:38:56.773Z,1.60
2022-12-26T20:41:24.982Z,0.57
2022-12-26T20:43:52.827Z,0.83
2022-12-26T20:46:24.411Z,1.57
2022-12-26T20:48:51.863Z,2.00
2022-12-26T20:51:20.851Z,0.67
2022-12-26T20:53:47.949Z,1.93
2022-12-26T20:56:15.162Z,0.90
2022-12-26T20:58:42.778Z,0.80
2022-12-26T21:01:15.890Z,1.17
2022-12-26T21:03:43.534Z,2.07
2022-12-26T21:06:19.367Z,0.80
2022-12-26T21:08:47.624Z,1.17
2022-12-26T21:11:19.586Z,1.73
2022-12-26T21:13:48.243Z,0.60
2022-12-26T21:16:20.062Z,1.13
2022-12-26T21:18:48.331Z,0.67
2022-12-26T21:21:21.290Z,2.10
2022-12-26T21:23:49.341Z,0.60
2022-12-26T21:26:16.715Z,1.03
2022-12-26T21:28:44.211Z,3.30
2022-12-26T21:31:11.918Z,0.80
2022-12-26T21:33:44.476Z,2.60
2022-12-26T21:36:13.307Z,1.90
2022-12-26T21:38:40.405Z,1.67
2022-12-26T21:41:11.942Z,0.97
2022-12-26T21:43:39.405Z,2.37
2022-12-26T21:46:13.512Z,0.70
2022-12-26T21:48:47.487Z,3.13
2022-12-26T21:51:15.925Z,7.37
2022-12-26T21:53:43.531Z,1.60
2022-12-26T21:56:12.732Z,2.23
2022-12-26T21:58:58.712Z,0.73
2022-12-26T22:01:28.024Z,4.33
2022-12-26T22:04:14.300Z,1.30
2022-12-26T22:06:42.370Z,0.70
2022-12-26T22:09:10.293Z,1.47
2022-12-26T22:11:56.957Z,1.37
2022-12-26T22:14:24.770Z,2.00
2022-12-26T22:16:52.983Z,1.50
2022-12-26T22:19:20.519Z,4.23
2022-12-26T22:21:47.923Z,1.50
2022-12-26T22:24:15.066Z,2.77
2022-12-26T22:26:42.422Z,2.13
2022-12-26T22:29:09.686Z,4.20
2022-12-26T22:31:37.949Z,3.37
2022-12-26T22:34:14.853Z,3.07
2022-12-26T22:36:42.827Z,1.03
2022-12-26T22:39:16.331Z,2.27
2022-12-26T22:41:45.775Z,1.13
2022-12-26T22:44:15.817Z,4.77
2022-12-26T22:46:43.284Z,5.40
2022-12-26T22:49:10.600Z,3.13
2022-12-26T22:51:38.019Z,2.90
2022-12-26T22:54:05.527Z,6.27
2022-12-26T22:56:34.060Z,2.13
2022-12-26T22:59:03.052Z,6.40
2022-12-26T23:01:30.789Z,2.13
2022-12-26T23:03:59.768Z,1.30
2022-12-26T23:06:29.857Z,1.40
2022-12-26T23:08:59.528Z,2.00
2022-12-26T23:11:34.424Z,2.23
2022-12-26T23:14:04.897Z,2.37
2022-12-26T23:16:50.613Z,2.53
2022-12-26T23:20:03.346Z,4.13
2022-12-26T23:22:31.025Z,2.93
2022-12-26T23:24:58.447Z,5.23
2022-12-26T23:27:44.532Z,3.73
2022-12-26T23:30:19.203Z,10.50
2022-12-26T23:32:50.987Z,5.17
2022-12-26T23:35:19.000Z,5.43
2022-12-26T23:37:46.464Z,2.63
2022-12-26T23:40:14.696Z,2.93
2022-12-26T23:42:42.196Z,4.10
2022-12-26T23:45:10.768Z,5.27
2022-12-26T23:47:38.721Z,6.10
2022-12-26T23:50:07.702Z,7.67
2022-12-26T23:52:35.569Z,4.30
2022-12-26T23:55:03.187Z,2.40
2022-12-26T23:57:30.270Z,1.20
2022-12-26T23:59:57.423Z,4.27
